North Shapleigh, Maine
Current Conditions -  °F | °C
As of 6:55 PM on Saturday 22 Nov 2014 (Local Time) from KSFM Reporting Station
Overcast Overcast  
Wind Chill: 32°   Ceiling: 7500
Heat Index: 36°   Visibility: 10mi
Dew Point:   Wind: 5mph
Humidity: 33%   Direction: 200°SSW
Pressure: 30.03"   Gusts: NA
Location:  43.5718°N, 70.831°W
Report Text: KSFM 222355Z AUTO 20004KT 10SM FEW041 OVC075 02/M13 A3003 RMK AO1 10030 20010 400301080 57017
Loading
Personal Weather Stations






























Interactive Weather Map New forecast layout! Learn more

10-Day Weather Forecast

Advertisements
Track Severe Weather on mobile